Terminal Aerodrome Forecast
Issued by NWS Kansas City/Pleasant Hill, MO

Home | Current Version | Previous Version | Text Only | Print | Product List | Glossary On
Versions: 1 2 3 4 5 6 7 8 9 10 11 12
000
FTUS43 KEAX 211726
TAFMCI
TAF
KMCI 211726Z 2118/2218 28006KT P6SM SCT035
      TEMPO 2118/2120 OVC015
     FM220000 VRB04KT P6SM FEW050
     FM220900 19003KT 5SM BR SKC
     FM221500 15006KT P6SM SCT200=

USA.gov is the U.S. government's official web portal to all federal, state and local government web resources and services.